CMB864 Details

Departure: Bahrain International Airport (OBBI)
Arrival: Ramstein Air Force Base (ETAR)
Route: RAMSI ITNAS UL602 TASMI L602 ALPET UM860 SRT G8 ULSAB UT334 INB L746 ODERO T86 MATEL WRN L744 ELRUR L602 KOMAN L852 DIRER REDBU KRH
Notes: USTRANSCOM CONTRACT FLIGHT


Current Weather Information
OBBI 251030Z 32008KT CAVOK 38/14 Q1008 NOSIG
ETAR 250956Z AUTO 33007KT 9999 FEW150 SCT200 19/08 A3002 RMK AO2 SLP165 T01870081 $